createdAt,value
2023-04-07T00:00:48.945Z,23.20
2023-04-07T00:03:23.796Z,23.20
2023-04-07T00:05:52.802Z,23.20
2023-04-07T00:08:22.079Z,23.20
2023-04-07T00:10:50.903Z,23.20
2023-04-07T00:13:19.901Z,23.20
2023-04-07T00:15:49.315Z,23.20
2023-04-07T00:18:18.382Z,23.20
2023-04-07T00:20:48.535Z,23.20
2023-04-07T00:23:17.538Z,23.20
2023-04-07T00:25:46.464Z,23.20
2023-04-07T00:28:15.661Z,23.20
2023-04-07T00:30:44.371Z,23.30
2023-04-07T00:33:13.526Z,23.30
2023-04-07T00:35:42.302Z,23.40
2023-04-07T00:38:13.205Z,23.30
2023-04-07T00:40:42.017Z,23.40
2023-04-07T00:43:11.296Z,23.40
2023-04-07T00:45:40.071Z,23.40
2023-04-07T00:48:09.270Z,23.40
2023-04-07T00:50:38.278Z,23.40
2023-04-07T00:53:08.153Z,23.50
2023-04-07T00:55:38.507Z,23.50
2023-04-07T00:58:07.584Z,23.50
2023-04-07T01:00:44.158Z,23.50
2023-04-07T01:03:21.904Z,23.50
2023-04-07T01:05:59.890Z,23.50
2023-04-07T01:08:43.790Z,23.60
2023-04-07T01:11:24.630Z,23.60
2023-04-07T01:13:56.588Z,23.60
2023-04-07T01:16:53.722Z,23.70
2023-04-07T01:19:37.981Z,23.70
2023-04-07T01:22:15.251Z,23.70
2023-04-07T01:25:18.463Z,23.70
2023-04-07T01:28:10.100Z,23.80
2023-04-07T01:30:44.394Z,23.80
2023-04-07T01:33:15.878Z,23.80
2023-04-07T01:35:48.226Z,23.80
2023-04-07T01:38:18.429Z,23.90
2023-04-07T01:40:50.802Z,23.80
2023-04-07T01:43:21.523Z,23.90
2023-04-07T01:45:52.717Z,23.90
2023-04-07T01:48:22.187Z,23.90
2023-04-07T01:50:52.895Z,23.90
2023-04-07T01:53:22.308Z,23.90
2023-04-07T01:55:53.687Z,23.90
2023-04-07T01:58:23.145Z,23.90
2023-04-07T02:00:53.920Z,23.90
2023-04-07T02:03:33.209Z,23.90
2023-04-07T02:06:09.180Z,24.00
2023-04-07T02:08:43.670Z,24.00
2023-04-07T02:11:14.456Z,24.00
2023-04-07T02:13:45.804Z,24.00
2023-04-07T02:16:18.952Z,24.00
2023-04-07T02:18:49.092Z,24.10
2023-04-07T02:21:20.253Z,24.10
2023-04-07T02:23:49.008Z,24.10
2023-04-07T02:26:18.154Z,24.10
2023-04-07T02:28:46.855Z,24.10
2023-04-07T02:31:17.290Z,24.10
2023-04-07T02:33:46.326Z,24.10
2023-04-07T02:36:15.410Z,24.20
2023-04-07T02:38:44.203Z,24.20
2023-04-07T02:41:13.239Z,24.20
2023-04-07T02:43:42.028Z,24.20
2023-04-07T02:46:11.959Z,24.30
2023-04-07T02:48:42.579Z,24.30
2023-04-07T02:51:12.300Z,24.30
2023-04-07T02:53:41.142Z,24.30
2023-04-07T02:56:10.338Z,24.30
2023-04-07T02:58:39.360Z,24.30
2023-04-07T03:01:08.638Z,24.30
2023-04-07T03:03:39.550Z,24.30
2023-04-07T03:06:23.578Z,24.40
2023-04-07T03:09:02.601Z,24.30
2023-04-07T03:11:31.727Z,24.30
2023-04-07T03:14:02.042Z,24.30
2023-04-07T03:16:33.765Z,24.40
2023-04-07T03:19:08.010Z,24.40
2023-04-07T03:21:42.836Z,24.40
2023-04-07T03:24:11.858Z,24.40
2023-04-07T03:26:41.157Z,24.40
2023-04-07T03:29:20.300Z,24.40
2023-04-07T03:31:49.625Z,24.40
2023-04-07T03:34:21.948Z,24.40
2023-04-07T03:36:52.733Z,24.40
2023-04-07T03:39:21.634Z,24.40
2023-04-07T03:41:52.825Z,24.40
2023-04-07T03:44:21.826Z,24.50
2023-04-07T03:46:51.247Z,24.50
2023-04-07T03:49:21.320Z,24.50
2023-04-07T03:51:53.637Z,24.50
2023-04-07T03:54:22.560Z,24.60
2023-04-07T03:56:51.752Z,24.60
2023-04-07T03:59:25.224Z,24.60
2023-04-07T04:02:04.386Z,24.60
2023-04-07T04:04:33.799Z,24.60
2023-04-07T04:07:04.874Z,24.70
2023-04-07T04:09:42.104Z,24.70
2023-04-07T04:12:11.415Z,24.70
2023-04-07T04:14:47.052Z,24.70
2023-04-07T04:17:17.442Z,24.70
2023-04-07T04:19:48.627Z,24.70
2023-04-07T04:22:30.312Z,24.70
2023-04-07T04:25:01.231Z,24.70
2023-04-07T04:27:30.673Z,24.70
2023-04-07T04:30:08.118Z,24.70
2023-04-07T04:32:46.776Z,24.70
2023-04-07T04:35:17.263Z,24.70
2023-04-07T04:37:58.397Z,24.70
2023-04-07T04:40:27.858Z,24.70
2023-04-07T04:42:57.002Z,24.70
2023-04-07T04:45:27.105Z,24.80
2023-04-07T04:47:56.642Z,24.80
2023-04-07T04:50:25.472Z,24.80
2023-04-07T04:52:55.391Z,24.80
2023-04-07T04:55:27.103Z,24.80
2023-04-07T04:57:56.992Z,24.90
2023-04-07T05:00:35.840Z,24.90
2023-04-07T05:03:08.847Z,24.90
2023-04-07T05:05:41.468Z,24.90
2023-04-07T05:08:12.623Z,24.90
2023-04-07T05:10:44.869Z,24.90
2023-04-07T05:13:16.654Z,24.90
2023-04-07T05:15:45.619Z,24.90
2023-04-07T05:18:16.144Z,24.90
2023-04-07T05:20:46.244Z,24.90
2023-04-07T05:23:15.338Z,24.90
2023-04-07T05:25:47.150Z,24.80
2023-04-07T05:28:16.238Z,24.90
2023-04-07T05:30:45.404Z,24.90
2023-04-07T05:33:14.607Z,24.90
2023-04-07T05:35:50.145Z,24.90
2023-04-07T05:38:19.307Z,25.00
2023-04-07T05:40:49.605Z,25.00
2023-04-07T05:43:29.035Z,24.90
2023-04-07T05:45:58.716Z,25.00
2023-04-07T05:48:27.852Z,25.00
2023-04-07T05:50:57.674Z,25.00
2023-04-07T05:53:27.332Z,25.00
2023-04-07T05:55:57.838Z,25.00
2023-04-07T05:58:41.179Z,25.00
2023-04-07T06:01:11.563Z,25.00
2023-04-07T06:03:41.377Z,25.00
2023-04-07T06:06:31.445Z,25.00
2023-04-07T06:09:00.891Z,25.10
2023-04-07T06:11:31.039Z,25.10
2023-04-07T06:14:01.180Z,25.10
2023-04-07T06:16:30.039Z,25.20
2023-04-07T06:19:00.218Z,25.20
2023-04-07T06:21:31.620Z,25.20
2023-04-07T06:24:00.743Z,25.20
2023-04-07T06:26:31.895Z,25.20
2023-04-07T06:29:01.724Z,25.20
2023-04-07T06:31:30.564Z,25.20
2023-04-07T06:33:59.617Z,25.20
2023-04-07T06:36:29.143Z,25.30
2023-04-07T06:38:58.310Z,25.30
2023-04-07T06:41:27.283Z,25.30
2023-04-07T06:43:57.763Z,25.30
2023-04-07T06:46:26.794Z,25.40
2023-04-07T06:48:56.072Z,25.30
2023-04-07T06:51:24.868Z,25.40
2023-04-07T06:53:53.810Z,25.40
2023-04-07T06:56:25.068Z,25.40
2023-04-07T06:58:54.349Z,25.40
2023-04-07T07:01:24.403Z,25.40
2023-04-07T07:03:53.826Z,25.40
2023-04-07T07:06:22.900Z,25.50
2023-04-07T07:08:52.100Z,25.50
2023-04-07T07:11:20.953Z,25.50
2023-04-07T07:13:50.307Z,25.50
2023-04-07T07:16:19.333Z,25.50
2023-04-07T07:18:49.832Z,25.60
2023-04-07T07:21:19.886Z,25.60
2023-04-07T07:23:49.428Z,25.70
2023-04-07T07:26:18.538Z,25.80
2023-04-07T07:28:47.987Z,25.80
2023-04-07T07:31:17.417Z,25.90
2023-04-07T07:33:48.793Z,25.90
2023-04-07T07:36:19.748Z,26.00
2023-04-07T07:38:51.549Z,26.00
2023-04-07T07:41:21.167Z,26.00
2023-04-07T07:43:50.677Z,26.10
2023-04-07T07:46:19.440Z,26.10
2023-04-07T07:48:48.471Z,26.10
2023-04-07T07:51:19.356Z,26.10
2023-04-07T07:53:48.532Z,26.10
2023-04-07T07:56:17.592Z,26.20
2023-04-07T07:58:46.723Z,26.20
2023-04-07T08:01:15.649Z,26.20
2023-04-07T08:03:45.903Z,26.20
2023-04-07T08:06:14.910Z,26.20
2023-04-07T08:08:45.335Z,26.30
2023-04-07T08:11:14.137Z,26.30
2023-04-07T08:13:45.602Z,26.30
2023-04-07T08:16:14.928Z,26.40
2023-04-07T08:18:43.964Z,26.40
2023-04-07T08:21:13.040Z,26.40
2023-04-07T08:23:42.085Z,26.50
2023-04-07T08:26:12.271Z,26.50
2023-04-07T08:28:41.363Z,26.60
2023-04-07T08:31:10.359Z,26.60
2023-04-07T08:33:39.575Z,26.60
2023-04-07T08:36:08.862Z,26.70
2023-04-07T08:38:38.082Z,26.70
2023-04-07T08:41:13.912Z,26.70
2023-04-07T08:43:47.355Z,26.80
2023-04-07T08:46:19.089Z,26.80
2023-04-07T08:48:53.694Z,26.90
2023-04-07T08:51:31.779Z,26.90
2023-04-07T08:54:10.061Z,26.90
2023-04-07T08:56:41.885Z,26.90
2023-04-07T08:59:15.503Z,26.90
2023-04-07T09:01:44.652Z,27.00
2023-04-07T09:04:14.790Z,26.90
2023-04-07T09:06:44.577Z,27.00
2023-04-07T09:09:15.329Z,27.00
2023-04-07T09:11:45.860Z,27.00
2023-04-07T09:14:15.573Z,27.10
2023-04-07T09:16:44.502Z,27.10
2023-04-07T09:19:13.647Z,27.10
2023-04-07T09:21:53.601Z,27.00
2023-04-07T09:24:25.744Z,27.10
2023-04-07T09:27:12.377Z,27.10
2023-04-07T09:29:44.199Z,27.10
2023-04-07T09:32:13.984Z,27.10
2023-04-07T09:34:43.290Z,27.20
2023-04-07T09:37:24.039Z,27.20
2023-04-07T09:39:54.649Z,27.20
2023-04-07T09:42:26.716Z,27.20
2023-04-07T09:44:56.033Z,27.30
2023-04-07T09:47:29.585Z,27.30
2023-04-07T09:50:01.993Z,27.20
2023-04-07T09:52:53.434Z,27.30
2023-04-07T09:55:24.347Z,27.30
2023-04-07T09:57:56.505Z,27.30
2023-04-07T10:00:26.708Z,27.30
2023-04-07T10:02:56.442Z,27.30
2023-04-07T10:05:26.494Z,27.40
2023-04-07T10:07:55.918Z,27.40
2023-04-07T10:10:27.237Z,27.40
2023-04-07T10:12:59.135Z,27.40
2023-04-07T10:15:28.558Z,27.40
2023-04-07T10:17:58.217Z,27.40
2023-04-07T10:20:29.529Z,27.40
2023-04-07T10:23:10.922Z,27.50
2023-04-07T10:25:42.532Z,27.50
2023-04-07T10:28:15.601Z,27.50
2023-04-07T10:30:45.648Z,27.60
2023-04-07T10:33:14.483Z,27.60
2023-04-07T10:36:07.104Z,27.60
2023-04-07T10:38:36.386Z,27.60
2023-04-07T10:41:41.921Z,27.70
2023-04-07T10:44:53.081Z,27.60
2023-04-07T10:47:22.243Z,27.70
2023-04-07T10:50:21.263Z,27.70
2023-04-07T10:53:05.590Z,27.70
2023-04-07T10:55:38.027Z,27.80
2023-04-07T10:58:18.581Z,27.80
2023-04-07T11:01:22.105Z,27.90
2023-04-07T11:03:58.876Z,27.90
2023-04-07T11:06:28.142Z,27.90
2023-04-07T11:08:57.454Z,28.00
2023-04-07T11:11:41.771Z,28.00
2023-04-07T11:14:10.952Z,28.00
2023-04-07T11:16:45.540Z,28.00
2023-04-07T11:19:14.670Z,28.10
2023-04-07T11:21:43.398Z,28.10
2023-04-07T11:24:12.591Z,28.20
2023-04-07T11:26:43.781Z,28.20
2023-04-07T11:29:13.555Z,28.20
2023-04-07T11:31:49.506Z,28.30
2023-04-07T11:34:18.664Z,28.30
2023-04-07T11:36:47.447Z,28.30
2023-04-07T11:39:22.018Z,28.30
2023-04-07T11:41:52.124Z,28.40
2023-04-07T11:44:21.427Z,28.30
2023-04-07T11:46:59.675Z,28.40
2023-04-07T11:49:31.672Z,28.30
2023-04-07T11:52:03.197Z,28.40
2023-04-07T11:54:42.964Z,28.40
2023-04-07T11:57:12.973Z,28.40
2023-04-07T11:59:43.116Z,28.40
2023-04-07T12:02:14.497Z,28.40
2023-04-07T12:04:58.336Z,28.40
2023-04-07T12:07:28.398Z,28.40
2023-04-07T12:09:58.455Z,28.40
2023-04-07T12:12:29.235Z,28.40
2023-04-07T12:14:58.555Z,28.40
2023-04-07T12:17:29.064Z,28.30
2023-04-07T12:19:58.403Z,28.20
2023-04-07T12:22:27.199Z,28.20
2023-04-07T12:24:56.405Z,28.20
2023-04-07T12:27:39.687Z,28.20
2023-04-07T12:30:13.211Z,28.20
2023-04-07T12:32:43.822Z,28.20
2023-04-07T12:35:13.268Z,28.20
2023-04-07T12:37:42.048Z,28.20
2023-04-07T12:40:12.335Z,28.30
2023-04-07T12:42:41.496Z,28.30
2023-04-07T12:45:11.572Z,28.30
2023-04-07T12:47:40.701Z,28.30
2023-04-07T12:50:11.711Z,28.30
2023-04-07T12:52:41.124Z,28.40
2023-04-07T12:55:10.997Z,28.40
2023-04-07T12:57:39.823Z,28.40
2023-04-07T13:00:10.819Z,28.40
2023-04-07T13:02:39.814Z,28.50
2023-04-07T13:05:11.450Z,28.50
2023-04-07T13:07:40.325Z,28.50
2023-04-07T13:10:11.062Z,28.40
2023-04-07T13:12:41.403Z,28.40
2023-04-07T13:15:10.723Z,28.40
2023-04-07T13:17:39.613Z,28.40
2023-04-07T13:20:11.176Z,28.40
2023-04-07T13:22:49.207Z,28.40
2023-04-07T13:25:24.987Z,28.40
2023-04-07T13:27:53.789Z,28.40
2023-04-07T13:30:23.033Z,28.40
2023-04-07T13:32:52.184Z,28.40
2023-04-07T13:35:22.808Z,28.50
2023-04-07T13:37:51.657Z,28.50
2023-04-07T13:40:20.957Z,28.40
2023-04-07T13:42:49.692Z,28.50
2023-04-07T13:45:18.921Z,28.40
2023-04-07T13:47:47.681Z,28.40
2023-04-07T13:50:16.979Z,28.30
2023-04-07T13:52:47.260Z,28.30
2023-04-07T13:55:16.987Z,28.20
2023-04-07T13:57:45.872Z,28.10
2023-04-07T14:00:16.437Z,28.20
2023-04-07T14:02:47.751Z,28.20
2023-04-07T14:05:17.193Z,28.30
2023-04-07T14:07:48.125Z,28.30
2023-04-07T14:10:17.629Z,28.30
2023-04-07T14:12:46.674Z,28.30
2023-04-07T14:15:18.170Z,28.30
2023-04-07T14:17:47.295Z,28.30
2023-04-07T14:20:16.376Z,28.30
2023-04-07T14:22:46.615Z,28.30
2023-04-07T14:25:15.797Z,28.30
2023-04-07T14:27:44.592Z,28.40
2023-04-07T14:30:14.408Z,28.30
2023-04-07T14:32:43.321Z,28.30
2023-04-07T14:35:12.486Z,28.30
2023-04-07T14:37:41.413Z,28.10
2023-04-07T14:40:12.981Z,28.10
2023-04-07T14:42:41.975Z,28.00
2023-04-07T14:45:12.847Z,27.90
2023-04-07T14:47:41.710Z,27.80
2023-04-07T14:50:11.858Z,27.80
2023-04-07T14:52:40.841Z,27.70
2023-04-07T14:55:11.627Z,27.50
2023-04-07T14:57:40.469Z,27.50
2023-04-07T15:00:11.271Z,27.60
2023-04-07T15:02:40.542Z,27.60
2023-04-07T15:05:10.624Z,27.50
2023-04-07T15:07:39.554Z,27.50
2023-04-07T15:10:09.773Z,27.50
2023-04-07T15:12:39.874Z,27.50
2023-04-07T15:15:09.618Z,27.40
2023-04-07T15:17:43.807Z,27.40
2023-04-07T15:20:13.968Z,27.40
2023-04-07T15:22:42.782Z,27.40
2023-04-07T15:25:11.904Z,27.40
2023-04-07T15:27:42.048Z,27.50
2023-04-07T15:30:12.253Z,27.50
2023-04-07T15:32:41.314Z,27.60
2023-04-07T15:35:10.831Z,27.30
2023-04-07T15:37:39.685Z,27.40
2023-04-07T15:40:10.375Z,27.70
2023-04-07T15:42:41.691Z,27.90
2023-04-07T15:45:13.276Z,28.10
2023-04-07T15:47:42.225Z,28.20
2023-04-07T15:50:12.390Z,28.30
2023-04-07T15:52:41.204Z,28.30
2023-04-07T15:55:11.159Z,28.30
2023-04-07T15:57:40.046Z,28.40
2023-04-07T16:00:10.719Z,28.50
2023-04-07T16:02:40.964Z,28.50
2023-04-07T16:05:10.637Z,28.60
2023-04-07T16:07:39.445Z,28.60
2023-04-07T16:10:11.650Z,28.60
2023-04-07T16:12:40.722Z,28.60
2023-04-07T16:15:11.607Z,28.60
2023-04-07T16:17:44.524Z,28.70
2023-04-07T16:20:15.869Z,28.70
2023-04-07T16:22:47.982Z,28.80
2023-04-07T16:25:18.180Z,28.70
2023-04-07T16:27:47.271Z,28.80
2023-04-07T16:30:18.595Z,28.80
2023-04-07T16:32:49.210Z,28.80
2023-04-07T16:35:18.883Z,28.80
2023-04-07T16:37:49.512Z,28.80
2023-04-07T16:40:18.748Z,28.90
2023-04-07T16:42:48.711Z,28.80
2023-04-07T16:45:18.053Z,28.70
2023-04-07T16:47:48.274Z,28.80
2023-04-07T16:50:17.426Z,28.70
2023-04-07T16:52:46.967Z,28.70
2023-04-07T16:55:16.233Z,28.70
2023-04-07T16:57:44.990Z,28.70
2023-04-07T17:00:15.239Z,28.60
2023-04-07T17:02:44.378Z,28.60
2023-04-07T17:05:15.152Z,28.50
2023-04-07T17:07:44.025Z,28.40
2023-04-07T17:10:14.632Z,28.30
2023-04-07T17:12:43.678Z,28.30
2023-04-07T17:15:12.934Z,28.30
2023-04-07T17:17:41.883Z,28.30
2023-04-07T17:20:13.396Z,28.30
2023-04-07T17:22:44.195Z,28.30
2023-04-07T17:25:13.365Z,28.20
2023-04-07T17:27:42.153Z,28.20
2023-04-07T17:30:12.627Z,28.10
2023-04-07T17:32:41.625Z,28.10
2023-04-07T17:35:11.264Z,28.00
2023-04-07T17:37:40.183Z,28.00
2023-04-07T17:40:12.098Z,27.90
2023-04-07T17:42:41.309Z,27.90
2023-04-07T17:45:12.027Z,27.90
2023-04-07T17:47:40.926Z,27.90
2023-04-07T17:50:11.642Z,27.90
2023-04-07T17:52:40.503Z,27.90
2023-04-07T17:55:12.534Z,27.90
2023-04-07T17:57:42.773Z,27.90
2023-04-07T18:00:13.214Z,28.00
2023-04-07T18:02:42.335Z,28.00
2023-04-07T18:05:12.537Z,28.00
2023-04-07T18:07:41.350Z,28.00
2023-04-07T18:10:12.428Z,28.00
2023-04-07T18:12:41.885Z,28.00
2023-04-07T18:15:11.765Z,27.90
2023-04-07T18:17:41.234Z,27.90
2023-04-07T18:20:12.121Z,27.80
2023-04-07T18:22:40.985Z,27.80
2023-04-07T18:25:12.437Z,27.80
2023-04-07T18:27:41.560Z,27.70
2023-04-07T18:30:11.469Z,27.70
2023-04-07T18:32:40.398Z,27.70
2023-04-07T18:35:10.304Z,27.70
2023-04-07T18:37:39.130Z,27.70
2023-04-07T18:40:11.620Z,27.70
2023-04-07T18:42:40.445Z,27.80
2023-04-07T18:45:10.548Z,27.80
2023-04-07T18:47:39.445Z,27.80
2023-04-07T18:50:09.992Z,27.80
2023-04-07T18:52:38.820Z,27.80
2023-04-07T18:55:10.947Z,27.90
2023-04-07T18:57:41.426Z,27.90
2023-04-07T19:00:11.986Z,27.90
2023-04-07T19:02:44.631Z,27.90
2023-04-07T19:05:14.260Z,27.90
2023-04-07T19:07:43.066Z,27.90
2023-04-07T19:10:12.246Z,27.90
2023-04-07T19:12:42.344Z,27.80
2023-04-07T19:15:12.605Z,27.70
2023-04-07T19:17:41.458Z,27.70
2023-04-07T19:20:11.242Z,27.70
2023-04-07T19:22:40.149Z,27.70
2023-04-07T19:25:10.708Z,27.70
2023-04-07T19:27:41.068Z,27.70
2023-04-07T19:30:11.485Z,27.60
2023-04-07T19:32:40.401Z,27.60
2023-04-07T19:35:11.282Z,27.60
2023-04-07T19:37:41.085Z,27.60
2023-04-07T19:40:11.593Z,27.60
2023-04-07T19:42:42.784Z,27.60
2023-04-07T19:45:12.846Z,27.50
2023-04-07T19:47:43.517Z,27.40
2023-04-07T19:50:14.429Z,27.40
2023-04-07T19:52:45.277Z,27.30
2023-04-07T19:55:15.649Z,27.20
2023-04-07T19:57:45.787Z,27.20
2023-04-07T20:00:16.180Z,27.10
2023-04-07T20:02:51.236Z,27.20
2023-04-07T20:05:20.893Z,27.20
2023-04-07T20:07:49.709Z,27.10
2023-04-07T20:10:19.037Z,27.00
2023-04-07T20:12:49.143Z,27.00
2023-04-07T20:15:18.403Z,27.00
2023-04-07T20:17:48.048Z,26.60
2023-04-07T20:20:17.890Z,26.60
2023-04-07T20:22:46.741Z,26.60
2023-04-07T20:25:16.101Z,26.60
2023-04-07T20:27:49.056Z,26.60
2023-04-07T20:30:19.888Z,26.60
2023-04-07T20:32:48.772Z,26.70
2023-04-07T20:35:18.072Z,26.60
2023-04-07T20:37:46.863Z,26.60
2023-04-07T20:40:16.144Z,26.60
2023-04-07T20:42:46.157Z,26.60
2023-04-07T20:45:15.301Z,26.40
2023-04-07T20:47:45.563Z,26.50
2023-04-07T20:50:14.723Z,26.50
2023-04-07T20:52:43.862Z,26.50
2023-04-07T20:55:13.447Z,26.40
2023-04-07T20:57:43.616Z,26.40
2023-04-07T21:00:13.315Z,26.50
2023-04-07T21:02:42.840Z,26.50
2023-04-07T21:05:13.530Z,26.60
2023-04-07T21:07:42.378Z,26.60
2023-04-07T21:10:12.325Z,26.50
2023-04-07T21:12:41.734Z,26.50
2023-04-07T21:15:11.883Z,26.50
2023-04-07T21:17:40.920Z,26.40
2023-04-07T21:20:13.093Z,26.40
2023-04-07T21:22:41.909Z,26.40
2023-04-07T21:25:11.510Z,26.30
2023-04-07T21:27:40.608Z,26.20
2023-04-07T21:30:11.230Z,26.30
2023-04-07T21:32:40.065Z,26.30
2023-04-07T21:35:10.466Z,26.30
2023-04-07T21:37:41.016Z,26.40
2023-04-07T21:40:11.434Z,26.30
2023-04-07T21:42:40.915Z,26.40
2023-04-07T21:45:12.193Z,26.40
2023-04-07T21:47:41.045Z,26.40
2023-04-07T21:50:11.267Z,26.40
2023-04-07T21:52:42.696Z,26.40
2023-04-07T21:55:12.194Z,26.40
2023-04-07T21:57:40.994Z,26.40
2023-04-07T22:00:12.755Z,26.40
2023-04-07T22:02:45.589Z,26.50
2023-04-07T22:05:16.030Z,26.50
2023-04-07T22:07:46.873Z,26.50
2023-04-07T22:10:16.547Z,26.50
2023-04-07T22:12:45.686Z,26.50
2023-04-07T22:15:14.786Z,26.50
2023-04-07T22:17:43.612Z,26.40
2023-04-07T22:20:13.465Z,26.30
2023-04-07T22:22:43.169Z,26.40
2023-04-07T22:25:13.691Z,26.30
2023-04-07T22:27:42.490Z,26.20
2023-04-07T22:30:11.916Z,26.20
2023-04-07T22:32:41.524Z,26.20
2023-04-07T22:35:11.149Z,26.10
2023-04-07T22:37:40.072Z,26.10
2023-04-07T22:40:10.799Z,26.00
2023-04-07T22:42:41.185Z,26.00
2023-04-07T22:45:11.310Z,26.00
2023-04-07T22:47:40.858Z,26.00
2023-04-07T22:50:11.756Z,26.00
2023-04-07T22:52:40.596Z,26.00
2023-04-07T22:55:11.077Z,26.00
2023-04-07T22:57:41.239Z,26.00
2023-04-07T23:00:11.635Z,26.00
2023-04-07T23:02:40.593Z,26.10
2023-04-07T23:05:11.240Z,26.00
2023-04-07T23:07:40.429Z,26.00
2023-04-07T23:10:10.518Z,26.10
2023-04-07T23:12:40.740Z,26.10
2023-04-07T23:15:11.000Z,26.10
2023-04-07T23:17:40.047Z,26.10
2023-04-07T23:20:10.977Z,26.10
2023-04-07T23:22:39.804Z,26.10
2023-04-07T23:25:10.381Z,26.10
2023-04-07T23:27:40.658Z,26.10
2023-04-07T23:30:11.279Z,26.10
2023-04-07T23:32:40.126Z,26.00
2023-04-07T23:35:10.614Z,26.00
2023-04-07T23:37:39.585Z,26.00
2023-04-07T23:40:10.978Z,26.00
2023-04-07T23:42:41.115Z,26.00
2023-04-07T23:45:11.255Z,26.10
2023-04-07T23:47:40.131Z,26.10
2023-04-07T23:50:10.394Z,26.10
2023-04-07T23:52:39.184Z,26.10
2023-04-07T23:55:09.499Z,26.00
2023-04-07T23:57:38.334Z,26.10
